METAR AND TAF INFORMATION
METAR FOR KORD
ADDS - METARS form results

(1930 UTC 26 April 2018)
Data provider http://aviationweather.gov/adds/metars/
 
METAR text: KORD 261851Z 00000KT 10SM BKN250 18/M02 A2990 RMK AO2 SLP127 T01781022
Conditions at: KORD (CHICAGO O'HARE , IL, US) observed 1851 UTC 26 April 2018
Temperature: 17.8°C (64°F)
Dewpoint: -2.2°C (28°F) [RH = 26%]
Pressure (altimeter): 29.90 inches Hg (1012.6 mb)
[Sea-level pressure: 1012.7 mb]
Winds: calm
Visibility: 10 or more miles (16+ km)
Ceiling: 25000 feet AGL
Clouds: broken clouds at 25000 feet AGL
Weather: no significant weather observed at this time

Forecast for: KORD (CHICAGO O'HARE , IL, US)
Text: KORD 261748Z 2618/2724 VRB04KT P6SM BKN250
Forecast period: 1800 to 2200 UTC 26 April 2018
Forecast type: FROM: standard forecast or significant change
Winds: variable direction winds at 5 MPH (4 knots; 2.1 m/s)
Visibility: 6 or more miles (10+ km)
Ceiling: 25000 feet AGL
Clouds: broken clouds at 25000 feet AGL
Weather: no significant weather forecast for this period
Forecast for: KORD (CHICAGO O'HARE , IL, US)
Text: KORD 261748Z 2618/2724 VRB04KT P6SM BKN250
Forecast period: 1800 to 2200 UTC 26 April 2018
Forecast type: FROM: standard forecast or significant change
Winds: variable direction winds at 5 MPH (4 knots; 2.1 m/s)
Visibility: 6 or more miles (10+ km)
Ceiling: 25000 feet AGL
Clouds: broken clouds at 25000 feet AGL
Weather: no significant weather forecast for this period
Forecast for: KORD (CHICAGO O'HARE , IL, US)
Text: KORD 261748Z 2618/2724 VRB04KT P6SM BKN250
Forecast period: 2200 UTC 26 April 2018 to 0800 UTC 27 April 2018
Forecast type: FROM: standard forecast or significant change
Winds: from the SSE (150 degrees) at 7 MPH (6 knots; 3.1 m/s)
Visibility: 6 or more miles (10+ km)
Ceiling: 25000 feet AGL
Clouds: broken clouds at 25000 feet AGL
Weather: no significant weather forecast for this period
Forecast for: KORD (CHICAGO O'HARE , IL, US)
Text: KORD 261748Z 2618/2724 VRB04KT P6SM BKN250
Forecast period: 2200 UTC 26 April 2018 to 0800 UTC 27 April 2018
Forecast type: FROM: standard forecast or significant change
Winds: from the SSE (150 degrees) at 7 MPH (6 knots; 3.1 m/s)
Visibility: 6 or more miles (10+ km)
Ceiling: 25000 feet AGL
Clouds: broken clouds at 25000 feet AGL
Weather: no significant weather forecast for this period
Forecast for: KORD (CHICAGO O'HARE , IL, US)
Text: KORD 261748Z 2618/2724 VRB04KT P6SM BKN250
Forecast period: 0800 to 1100 UTC 27 April 2018
Forecast type: FROM: standard forecast or significant change
Winds: from the NNW (340 degrees) at 12 MPH (10 knots; 5.2 m/s)
gusting to 21 MPH (18 knots; 9.4 m/s)
Visibility: 6 or more miles (10+ km)
Ceiling: 8000 feet AGL
Clouds: scattered clouds at 2000 feet AGL
broken clouds at 8000 feet AGL
Weather: no significant weather forecast for this period
Forecast for: KORD (CHICAGO O'HARE , IL, US)
Text: KORD 261748Z 2618/2724 VRB04KT P6SM BKN250
Forecast period: 0800 to 1100 UTC 27 April 2018
Forecast type: FROM: standard forecast or significant change
Winds: from the NNW (340 degrees) at 12 MPH (10 knots; 5.2 m/s)
gusting to 21 MPH (18 knots; 9.4 m/s)
Visibility: 6 or more miles (10+ km)
Ceiling: 8000 feet AGL
Clouds: scattered clouds at 2000 feet AGL
broken clouds at 8000 feet AGL
Weather: no significant weather forecast for this period
Forecast for: KORD (CHICAGO O'HARE , IL, US)
Text: KORD 261748Z 2618/2724 VRB04KT P6SM BKN250
Forecast period: 1100 to 1700 UTC 27 April 2018
Forecast type: FROM: standard forecast or significant change
Winds: from the N (350 degrees) at 12 MPH (10 knots; 5.2 m/s)
Visibility: 6 or more miles (10+ km)
Clouds: scattered clouds at 2500 feet AGL
Weather: no significant weather forecast for this period
Forecast for: KORD (CHICAGO O'HARE , IL, US)
Text: KORD 261748Z 2618/2724 VRB04KT P6SM BKN250
Forecast period: 1100 to 1700 UTC 27 April 2018
Forecast type: FROM: standard forecast or significant change
Winds: from the N (350 degrees) at 12 MPH (10 knots; 5.2 m/s)
Visibility: 6 or more miles (10+ km)
Clouds: scattered clouds at 2500 feet AGL
Weather: no significant weather forecast for this period
Forecast for: KORD (CHICAGO O'HARE , IL, US)
Text: KORD 261748Z 2618/2724 VRB04KT P6SM BKN250
Forecast period: 1700 to 2100 UTC 27 April 2018
Forecast type: FROM: standard forecast or significant change
Winds: from the W (280 degrees) at 8 MPH (7 knots; 3.6 m/s)
Visibility: 6 or more miles (10+ km)
Clouds: few clouds at 25000 feet AGL
Weather: no significant weather forecast for this period
Forecast for: KORD (CHICAGO O'HARE , IL, US)
Text: KORD 261748Z 2618/2724 VRB04KT P6SM BKN250
Forecast period: 1700 to 2100 UTC 27 April 2018
Forecast type: FROM: standard forecast or significant change
Winds: from the W (280 degrees) at 8 MPH (7 knots; 3.6 m/s)
Visibility: 6 or more miles (10+ km)
Clouds: few clouds at 25000 feet AGL
Weather: no significant weather forecast for this period
Forecast for: KORD (CHICAGO O'HARE , IL, US)
Text: KORD 261748Z 2618/2724 VRB04KT P6SM BKN250
Forecast period: 2100 UTC 27 April 2018 to 0000 UTC 28 April 2018
Forecast type: FROM: standard forecast or significant change
Winds: from the WSW (240 degrees) at 14 MPH (12 knots; 6.2 m/s)
gusting to 21 MPH (18 knots; 9.4 m/s)
Visibility: 6 miles (10 km)
Ceiling: 9000 feet AGL
Clouds: broken clouds at 9000 feet AGL
Weather: -SHRA  (light rain showers)
Forecast for: KORD (CHICAGO O'HARE , IL, US)
Text: KORD 261748Z 2618/2724 VRB04KT P6SM BKN250
Forecast period: 2100 UTC 27 April 2018 to 0000 UTC 28 April 2018
Forecast type: FROM: standard forecast or significant change
Winds: from the WSW (240 degrees) at 14 MPH (12 knots; 6.2 m/s)
gusting to 21 MPH (18 knots; 9.4 m/s)
Visibility: 6 miles (10 km)
Ceiling: 9000 feet AGL
Clouds: broken clouds at 9000 feet AGL
Weather: -SHRA  (light rain showers)

 AIRPORT MAP

 RUNWAY INFORMATION
Runway 04L Runway length 7500 ft Runway width 150 ft
Runway elevation 656 ft Runway displaced threshold 0 ft Runway heading 39
Runway 22R Runway length 7500 ft Runway width 150 ft
Runway elevation 648 ft Runway displaced threshold 0 ft Runway heading 219
Runway 04R Runway length 8075 ft Runway width 150 ft
Runway elevation 661 ft Runway displaced threshold 0 ft Runway heading 42
Runway 22L Runway length 8075 ft Runway width 150 ft
Runway elevation 651 ft Runway displaced threshold 0 ft Runway heading 222
Runway 09L Runway length 7967 ft Runway width 150 ft
Runway elevation 668 ft Runway displaced threshold 0 ft Runway heading 90
Runway 27R Runway length 7967 ft Runway width 150 ft
Runway elevation 664 ft Runway displaced threshold 0 ft Runway heading 270
Runway 09R Runway length 10144 ft Runway width 150 ft
Runway elevation 660 ft Runway displaced threshold 0 ft Runway heading 90
Runway 27L Runway length 10144 ft Runway width 150 ft
Runway elevation 650 ft Runway displaced threshold 0 ft Runway heading 270
Runway 10C Runway length 10801 ft Runway width 200 ft
Runway elevation 669 ft Runway displaced threshold 0 ft Runway heading 90
Runway 28C Runway length 10801 ft Runway width 200 ft
Runway elevation 650 ft Runway displaced threshold 0 ft Runway heading 270
Runway 10L Runway length 13000 ft Runway width 150 ft
Runway elevation 672 ft Runway displaced threshold 0 ft Runway heading 90
Runway 28R Runway length 13000 ft Runway width 150 ft
Runway elevation 651 ft Runway displaced threshold 0 ft Runway heading 270
Runway 14L Runway length 10005 ft Runway width 150 ft
Runway elevation 653 ft Runway displaced threshold 0 ft Runway heading 140
Runway 32R Runway length 10005 ft Runway width 150 ft
Runway elevation 648 ft Runway displaced threshold 0 ft Runway heading 320
Runway 14R Runway length 13000 ft Runway width 200 ft
Runway elevation 666 ft Runway displaced threshold 0 ft Runway heading 140
Runway 32L Runway length 13000 ft Runway width 200 ft
Runway elevation 654 ft Runway displaced threshold 0 ft Runway heading 320
Runway 18 Runway length 5332 ft Runway width 150 ft
Runway elevation 646 ft Runway displaced threshold 0 ft Runway heading 180
Runway 36 Runway length 5332 ft Runway width 150 ft
Runway elevation 653 ft Runway displaced threshold 0 ft Runway heading 360

 AIRPORT FREQUENCIES
Type APP Name APP Frequency 119 MHZ
Type ASOS Name ASOS Frequency 135.4 MHZ
Type ATIS Name ATIS Frequency 135.4 MHZ
Type CLD Name CLNC DEL Frequency 121.6 MHZ
Type DEP Name DEP Frequency 125 MHZ
Type GND Name GND Frequency 121.675 MHZ
Type PTD Name PTD Frequency 126.2 MHZ
Type TWR Name TWR Frequency 126.9 MHZ
Type UNIC Name UNICOM Frequency 122.95 MHZ

 AIRPORT NEAR NAVIGATION AIDS
Type NDB Name Taffs Frequency 414 KHZ
Type NDB Name Inddy Frequency 385 KHZ
Type NDB Name Deana Frequency 350 KHZ
Type NDB Name Leama Frequency 368 KHZ
Type NDB Name Chstr Frequency 394 KHZ
Type VOR-DME Name Chicago O'Hare Frequency 113900 KHZ



v2.6.1